Relevés horaires St-Hubert (Belgique)


Relevés horaires à St-Hubert - Mercredi 09 Juin 2021
Heure UTC1 Température [°C] Vent [km/h] Hum. [%] Pres.4 [hPa] Visi. [Km] Nébu. [octa] Préc.5 [mm] Cond.
2m. Res. Ros. Dir.2 Vit. Moy. Raf.3
23:00 16.3 16.3 8.6 N 3.7 5.6 7.4 60 1022.6(0.2/3h) 35 0/8 -- --
22:00 17.2 17.2 9.9 N 5.6 5.6 7.4 62 1022.5(0.7/3h) 35 0/8 -- --
21:00 17.6 17.6 10.4 N 5.6 7.4 11.1 63 1022.5(1.1/3h) 27 0/8 -- --
20:00 18.3 18.3 10.8 N 3.7 5.6 9.3 62 1021.9(0.9/3h) 26 0/8 -- --
19:00 19.6 19.6 11.0 NNO 5.6 7.4 11.1 58 1021.2(0.4/3h) 26 0/8 -- --
18:00 21.0 21.0 11.1 NNO 7.4 9.3 14.8 53 1020.6(-0.1/3h) 35 0/8 0/12h
--
17:00 21.9 21.9 11.6 N 5.6 9.3 14.8 52 1020.2(-0.6/3h) 26 0/8 -- --
16:00 22.2 22.2 11.4 NNO 7.4 9.3 14.8 50 1020.3(-0.7/3h) 27 0/8 -- --
15:00 22.1 22.1 10.5 NO 5.6 9.3 14.8 48 1020.4(-0.8/3h) 30 2/8 -- --
14:00 21.9 21.9 10.3 NO 7.4 9.3 14.8 48 1020.8(-0.7/3h) 30 0/8 -- --
13:00 20.9 20.9 10.0 NNO 5.6 7.4 14.8 50 1021.4(-0.3/3h) 24 8/8 -- --
12:00 20.9 20.9 10.3 NNO 5.6 7.4 13.0 51 1021.6(0.0/3h) 27 1/8 0/6h
--
11:00 20.9 20.9 10.3 NO 7.4 7.4 13.0 51 1021.7(0.2/3h) 24 3/8 -- --
10:00 19.8 19.8 10.1 NO 3.7 3.7 7.4 54 1021.9(0.4/3h) 28 5/8 -- --
09:00 19.4 19.4 10.2 NNO 1.9 3.7 7.4 55 1021.9(0.4/3h) 25 1/8 -- --
08:00 19.4 19.4 12.3 NNO 1.9 3.7 7.4 64 1021.8(0.5/3h) 21 8/8 -- --
07:00 18.5 18.5 10.4 ENE 1.9 1.9 5.6 59 1021.8(0.3/3h) 19 0/8 -- --
06:00 17.5 17.5 11.1 NE 1.9 3.7 5.6 66 1021.9(-0.1/3h) 14 0/8 0/12h
--
05:00 16.1 16.1 9.1 ESE 1.9 1.9 3.7 63 1022(0.1/3h) 12 0/8 -- --
04:00 12.0 12.0 9.1 SSE 1.9 3.7 3.7 82 1023(-0.2/3h) 10 0/8 -- --
03:00 12.9 12.9 8.7 ESE 3.7 3.7 5.6 76 1022.9(-0.4/3h) 10 0/8 -- --
02:00 13.5 13.5 9.9 ESE 3.7 3.7 5.6 79 1022.7(-0.6/3h) 11 0/8 -- --
01:00 11.5 11.5 9.5 ENE 3.7 3.7 3.7 88 1023.4(-0.5/3h) 27 0/8 -- --
00:00 12.9 12.9 8.6 ENE 3.7 5.6 9.3 75 1023.3(0.1/3h) 40 0/8 0/6h
0/24h
--

1 Coordinated Universal Time. Actuellement il est 13:00 locale et 11:00 UTC.

2 Le vent souffle depuis la direction indiquée vers la direction oposée.

3 Les rafales max. sont disponible 40 min après l'heure du relevé.

4 Pour les stations d'altitude (plus de 600m) le géopotentiel du niveau le plus proche de la pression obligatoire est indiqué.

5 Les stations disposant d'un diffuseur peuvent indiquer "trace". Cela signifie que des précipitations ont touchés le sol mais que la quantité est inférieure à 0.1 mm.

Récapitulatif de la journée
Température [°C] Vent [km/h] Ensoleillement4 [h] Precipitations totale5 [mm] Pression [Hpa]
Min1 Max.2 Moy.3 Max. Min Max.
10.7 22.7 5.8 14.8 0 h 0 min 0 1020.2 1023.4

1 Température minimale relevée entre 18:00 UTC la veille et 18:00 UTC le jour donné.

2 Température maximale relevée entre 06:00 UTC le jour donné et 06:00 UTC le lendemain.

3 Vent moyen de la journée basé sur les relevés horaires.

4 Ensoleillement en heures relevé entre 06:00 UTC la veille et 06:00 UTC le jour donné.

5 Précipitations totales tombées entre 06:00 UTC la jour donné et 06:00 UTC le lendemain.

Graphiques horaires